createdAt,value
2018-04-09T00:00:51.620Z,1000.43
2018-04-09T00:01:51.604Z,1000.43
2018-04-09T00:02:51.591Z,1000.40
2018-04-09T00:03:51.576Z,1000.39
2018-04-09T00:04:51.559Z,1000.39
2018-04-09T00:05:51.556Z,1000.45
2018-04-09T00:06:51.532Z,1000.42
2018-04-09T00:07:51.517Z,1000.39
2018-04-09T00:08:51.498Z,1000.39
2018-04-09T00:09:51.485Z,1000.40
2018-04-09T00:10:51.469Z,1000.39
2018-04-09T00:11:51.456Z,1000.38
2018-04-09T00:12:51.438Z,1000.40
2018-04-09T00:13:51.422Z,1000.38
2018-04-09T00:14:51.415Z,1000.36
2018-04-09T00:15:51.392Z,1000.35
2018-04-09T00:16:51.375Z,1000.36
2018-04-09T00:17:51.367Z,1000.37
2018-04-09T00:18:51.349Z,1000.34
2018-04-09T00:19:51.332Z,1000.35
2018-04-09T00:20:51.318Z,1000.38
2018-04-09T00:21:51.301Z,1000.35
2018-04-09T00:22:51.291Z,1000.35
2018-04-09T00:23:51.277Z,1000.34
2018-04-09T00:24:51.260Z,1000.34
2018-04-09T00:25:51.239Z,1000.34
2018-04-09T00:26:51.227Z,1000.29
2018-04-09T00:27:51.234Z,1000.30
2018-04-09T00:28:51.196Z,1000.30
2018-04-09T00:29:51.178Z,1000.31
2018-04-09T00:30:51.166Z,1000.29
2018-04-09T00:31:51.153Z,1000.31
2018-04-09T00:32:51.139Z,1000.28
2018-04-09T00:33:51.121Z,1000.30
2018-04-09T00:34:51.105Z,1000.31
2018-04-09T00:35:51.097Z,1000.32
2018-04-09T00:36:51.076Z,1000.31
2018-04-09T00:37:51.059Z,1000.29
2018-04-09T00:38:51.042Z,1000.29
2018-04-09T00:39:51.025Z,1000.28
2018-04-09T00:40:51.012Z,1000.27
2018-04-09T00:41:50.999Z,1000.24
2018-04-09T00:42:50.980Z,1000.28
2018-04-09T00:43:50.969Z,1000.24
2018-04-09T00:44:50.953Z,1000.27
2018-04-09T00:45:50.940Z,1000.23
2018-04-09T00:46:50.926Z,1000.23
2018-04-09T00:47:50.911Z,1000.25
2018-04-09T00:48:50.893Z,1000.24
2018-04-09T00:49:50.878Z,1000.28
2018-04-09T00:50:50.859Z,1000.28
2018-04-09T00:51:50.846Z,1000.28
2018-04-09T00:52:50.833Z,1000.29
2018-04-09T00:53:50.816Z,1000.25
2018-04-09T00:54:50.798Z,1000.25
2018-04-09T00:55:50.786Z,1000.26
2018-04-09T00:56:50.768Z,1000.31
2018-04-09T00:57:50.752Z,1000.25
2018-04-09T00:58:50.741Z,1000.24
2018-04-09T00:59:50.721Z,1000.24
2018-04-09T01:00:50.708Z,1000.20
2018-04-09T01:01:50.690Z,1000.22
2018-04-09T01:02:50.680Z,1000.21
2018-04-09T01:03:50.659Z,1000.18
2018-04-09T01:04:50.658Z,1000.17
2018-04-09T01:05:50.640Z,1000.17
2018-04-09T01:06:50.616Z,1000.18
2018-04-09T01:07:50.608Z,1000.16
2018-04-09T01:08:50.588Z,1000.15
2018-04-09T01:09:50.569Z,1000.12
2018-04-09T01:10:50.550Z,1000.14
2018-04-09T01:11:50.533Z,1000.11
2018-04-09T01:12:50.520Z,1000.12
2018-04-09T01:13:50.508Z,1000.10
2018-04-09T01:14:50.488Z,1000.13
2018-04-09T01:15:50.480Z,1000.13
2018-04-09T01:16:50.461Z,1000.18
2018-04-09T01:17:50.446Z,1000.14
2018-04-09T01:18:50.429Z,1000.16
2018-04-09T01:19:50.412Z,1000.17
2018-04-09T01:20:50.398Z,1000.15
2018-04-09T01:21:50.386Z,1000.17
2018-04-09T01:22:50.366Z,1000.19
2018-04-09T01:23:50.351Z,1000.20
2018-04-09T01:24:50.336Z,1000.20
2018-04-09T01:25:50.319Z,1000.18
2018-04-09T01:26:50.303Z,1000.18
2018-04-09T01:27:50.292Z,1000.19
2018-04-09T01:28:50.273Z,1000.16
2018-04-09T01:29:50.257Z,1000.19
2018-04-09T01:30:50.243Z,1000.18
2018-04-09T01:31:50.225Z,1000.16
2018-04-09T01:32:50.208Z,1000.17
2018-04-09T01:33:50.192Z,1000.16
2018-04-09T01:34:50.179Z,1000.19
2018-04-09T01:35:50.161Z,1000.16
2018-04-09T01:36:50.148Z,1000.17
2018-04-09T01:37:50.130Z,1000.14
2018-04-09T01:38:50.122Z,1000.16
2018-04-09T01:39:50.098Z,1000.14
2018-04-09T01:40:50.089Z,1000.10
2018-04-09T01:41:50.066Z,1000.12
2018-04-09T01:42:50.059Z,1000.14
2018-04-09T01:43:50.035Z,1000.11
2018-04-09T01:44:50.024Z,1000.13
2018-04-09T01:45:50.016Z,1000.10
2018-04-09T01:46:49.989Z,1000.14
2018-04-09T01:47:49.978Z,1000.14
2018-04-09T01:48:49.955Z,1000.13
2018-04-09T01:49:49.946Z,1000.13
2018-04-09T01:50:49.933Z,1000.13
2018-04-09T01:51:49.911Z,1000.13
2018-04-09T01:52:49.897Z,1000.10
2018-04-09T01:53:49.878Z,1000.11
2018-04-09T01:54:49.865Z,1000.14
2018-04-09T01:55:49.849Z,1000.10
2018-04-09T01:56:49.833Z,1000.10
2018-04-09T01:57:49.819Z,1000.14
2018-04-09T01:58:49.806Z,1000.15
2018-04-09T01:59:49.790Z,1000.13
2018-04-09T02:00:49.769Z,1000.17
2018-04-09T02:01:49.760Z,1000.12
2018-04-09T02:02:49.739Z,1000.12
2018-04-09T02:03:49.728Z,1000.13
2018-04-09T02:04:49.709Z,1000.15
2018-04-09T02:05:49.699Z,1000.15
2018-04-09T02:06:49.673Z,1000.14
2018-04-09T02:07:49.659Z,1000.15
2018-04-09T02:08:49.641Z,1000.10
2018-04-09T02:09:49.626Z,1000.11
2018-04-09T02:10:49.617Z,1000.12
2018-04-09T02:11:49.594Z,1000.10
2018-04-09T02:12:49.578Z,1000.11
2018-04-09T02:13:49.562Z,1000.10
2018-04-09T02:14:49.549Z,1000.08
2018-04-09T02:15:49.533Z,1000.07
2018-04-09T02:16:49.520Z,1000.09
2018-04-09T02:17:49.508Z,1000.07
2018-04-09T02:18:49.492Z,1000.10
2018-04-09T02:19:49.468Z,1000.08
2018-04-09T02:20:49.454Z,1000.05
2018-04-09T02:21:49.435Z,1000.02
2018-04-09T02:22:49.421Z,1000.02
2018-04-09T02:23:49.405Z,1000.01
2018-04-09T02:24:49.390Z,1000.00
2018-04-09T02:25:49.373Z,1000.01
2018-04-09T02:26:49.358Z,1000.02
2018-04-09T02:27:49.342Z,1000.01
2018-04-09T02:28:49.327Z,1000.01
2018-04-09T02:29:49.309Z,1000.01
2018-04-09T02:30:49.296Z,999.98
2018-04-09T02:31:49.282Z,999.98
2018-04-09T02:32:49.269Z,999.98
2018-04-09T02:34:49.233Z,999.99
2018-04-09T02:35:49.217Z,999.95
2018-04-09T02:36:49.199Z,999.97
2018-04-09T02:37:49.182Z,999.96
2018-04-09T02:38:49.167Z,999.96
2018-04-09T02:39:49.153Z,999.92
2018-04-09T02:40:49.151Z,999.93
2018-04-09T02:41:49.121Z,999.97
2018-04-09T02:42:49.105Z,999.95
2018-04-09T02:43:49.090Z,999.93
2018-04-09T02:44:49.075Z,999.97
2018-04-09T02:45:49.060Z,999.97
2018-04-09T02:46:49.040Z,999.97
2018-04-09T02:47:49.030Z,999.99
2018-04-09T02:48:49.009Z,999.96
2018-04-09T02:49:48.994Z,999.93
2018-04-09T02:50:48.981Z,999.93
2018-04-09T02:51:48.960Z,999.96
2018-04-09T02:52:48.945Z,999.96
2018-04-09T02:53:48.929Z,999.94
2018-04-09T02:54:48.964Z,999.94
2018-04-09T02:55:48.901Z,999.94
2018-04-09T02:56:48.884Z,999.90
2018-04-09T02:57:48.865Z,999.88
2018-04-09T02:58:48.848Z,999.88
2018-04-09T02:59:48.833Z,999.90
2018-04-09T03:00:48.820Z,999.90
2018-04-09T03:01:48.797Z,999.94
2018-04-09T03:02:48.782Z,999.91
2018-04-09T03:03:48.766Z,999.92
2018-04-09T03:04:48.750Z,999.93
2018-04-09T03:05:48.736Z,999.90
2018-04-09T03:06:48.720Z,999.91
2018-04-09T03:07:48.703Z,999.88
2018-04-09T03:08:48.687Z,999.89
2018-04-09T03:09:48.670Z,999.90
2018-04-09T03:10:48.655Z,999.90
2018-04-09T03:11:48.639Z,999.90
2018-04-09T03:12:48.621Z,999.89
2018-04-09T03:13:48.611Z,999.90
2018-04-09T03:14:48.589Z,999.92
2018-04-09T03:15:48.577Z,999.92
2018-04-09T03:16:48.556Z,999.90
2018-04-09T03:17:48.540Z,999.93
2018-04-09T03:18:48.529Z,999.95
2018-04-09T03:19:48.509Z,999.94
2018-04-09T03:20:48.498Z,999.92
2018-04-09T03:21:48.481Z,999.94
2018-04-09T03:22:48.465Z,999.93
2018-04-09T03:23:48.445Z,999.90
2018-04-09T03:24:48.433Z,999.90
2018-04-09T03:25:48.422Z,999.86
2018-04-09T03:26:48.403Z,999.89
2018-04-09T03:27:48.388Z,999.87
2018-04-09T03:28:48.363Z,999.89
2018-04-09T03:29:48.353Z,999.87
2018-04-09T03:30:48.333Z,999.89
2018-04-09T03:31:48.317Z,999.86
2018-04-09T03:32:48.301Z,999.81
2018-04-09T03:33:48.287Z,999.85
2018-04-09T03:34:48.266Z,999.81
2018-04-09T03:35:48.250Z,999.81
2018-04-09T03:36:48.237Z,999.82
2018-04-09T03:37:48.222Z,999.82
2018-04-09T03:38:48.206Z,999.83
2018-04-09T03:39:48.190Z,999.83
2018-04-09T03:40:48.178Z,999.83
2018-04-09T03:41:48.158Z,999.82
2018-04-09T03:42:48.139Z,999.84
2018-04-09T03:43:48.128Z,999.85
2018-04-09T03:44:48.109Z,999.88
2018-04-09T03:45:48.094Z,999.86
2018-04-09T03:46:48.076Z,999.88
2018-04-09T03:47:48.058Z,999.86
2018-04-09T03:48:48.048Z,999.88
2018-04-09T03:49:48.026Z,999.86
2018-04-09T03:50:48.008Z,999.88
2018-04-09T03:51:47.995Z,999.85
2018-04-09T03:52:47.979Z,999.91
2018-04-09T03:53:47.962Z,999.90
2018-04-09T03:54:47.946Z,999.90
2018-04-09T03:55:47.928Z,999.94
2018-04-09T03:56:47.911Z,999.97
2018-04-09T03:57:47.900Z,999.94
2018-04-09T03:58:47.880Z,999.97
2018-04-09T03:59:47.865Z,999.94
2018-04-09T04:00:47.849Z,999.93
2018-04-09T04:01:47.830Z,999.95
2018-04-09T04:02:47.815Z,999.94
2018-04-09T04:03:47.792Z,999.99
2018-04-09T04:04:47.783Z,999.99
2018-04-09T04:05:47.766Z,1000.00
2018-04-09T04:06:47.748Z,1000.02
2018-04-09T04:07:47.730Z,1000.03
2018-04-09T04:08:47.716Z,1000.03
2018-04-09T04:09:47.700Z,1000.07
2018-04-09T04:10:47.679Z,1000.03
2018-04-09T04:11:47.665Z,1000.04
2018-04-09T04:12:47.645Z,1000.01
2018-04-09T04:13:47.630Z,1000.00
2018-04-09T04:14:47.615Z,1000.01
2018-04-09T04:15:47.599Z,1000.02
2018-04-09T04:16:47.584Z,1000.08
2018-04-09T04:17:47.570Z,1000.06
2018-04-09T04:18:47.548Z,1000.06
2018-04-09T04:19:47.529Z,1000.03
2018-04-09T04:20:47.519Z,1000.03
2018-04-09T04:21:47.503Z,1000.00
2018-04-09T04:22:47.483Z,999.99
2018-04-09T04:23:47.464Z,999.98
2018-04-09T04:24:47.453Z,999.95
2018-04-09T04:25:47.433Z,999.96
2018-04-09T04:26:47.420Z,999.97
2018-04-09T04:27:47.398Z,999.97
2018-04-09T04:28:47.387Z,999.95
2018-04-09T04:29:47.366Z,999.95
2018-04-09T04:30:47.350Z,999.94
2018-04-09T04:31:47.337Z,999.96
2018-04-09T04:32:47.320Z,999.93
2018-04-09T04:33:47.300Z,999.94
2018-04-09T04:34:47.288Z,999.96
2018-04-09T04:35:47.269Z,999.97
2018-04-09T04:36:47.250Z,999.93
2018-04-09T04:37:47.235Z,999.96
2018-04-09T04:38:47.219Z,999.95
2018-04-09T04:39:47.202Z,999.94
2018-04-09T04:40:47.189Z,999.98
2018-04-09T04:41:47.169Z,1000.01
2018-04-09T04:42:47.158Z,1000.01
2018-04-09T04:43:47.134Z,1000.00
2018-04-09T04:44:47.120Z,999.99
2018-04-09T04:45:47.106Z,999.99
2018-04-09T04:46:47.085Z,999.93
2018-04-09T04:47:47.071Z,999.94
2018-04-09T04:48:47.054Z,999.94
2018-04-09T04:49:47.046Z,999.92
2018-04-09T04:50:47.023Z,999.90
2018-04-09T04:51:47.005Z,999.92
2018-04-09T04:52:46.989Z,999.91
2018-04-09T04:53:46.974Z,999.91
2018-04-09T04:54:46.951Z,999.92
2018-04-09T04:55:46.937Z,999.89
2018-04-09T04:56:46.923Z,999.92
2018-04-09T04:57:46.905Z,999.91
2018-04-09T04:58:46.886Z,999.94
2018-04-09T04:59:46.868Z,999.93
2018-04-09T05:00:46.851Z,999.94
2018-04-09T05:01:46.838Z,999.97
2018-04-09T05:02:46.820Z,999.95
2018-04-09T05:03:46.801Z,999.99
2018-04-09T05:04:46.788Z,999.94
2018-04-09T05:05:46.769Z,999.96
2018-04-09T05:06:46.753Z,999.94
2018-04-09T05:07:46.737Z,999.97
2018-04-09T05:08:46.721Z,999.97
2018-04-09T05:09:46.702Z,999.96
2018-04-09T05:10:46.686Z,999.99
2018-04-09T05:11:46.683Z,999.97
2018-04-09T05:12:46.654Z,999.98
2018-04-09T05:13:46.640Z,999.97
2018-04-09T05:14:46.620Z,999.91
2018-04-09T05:15:46.604Z,999.95
2018-04-09T05:16:46.585Z,999.93
2018-04-09T05:17:46.569Z,999.93
2018-04-09T05:18:46.556Z,999.90
2018-04-09T05:19:46.538Z,999.90
2018-04-09T05:20:46.520Z,999.94
2018-04-09T05:21:46.509Z,999.91
2018-04-09T05:22:46.485Z,999.92
2018-04-09T05:23:46.474Z,999.92
2018-04-09T05:24:46.464Z,999.90
2018-04-09T05:25:46.439Z,999.89
2018-04-09T05:26:46.430Z,999.90
2018-04-09T05:27:46.405Z,999.91
2018-04-09T05:28:46.384Z,999.92
2018-04-09T05:29:46.369Z,999.89
2018-04-09T05:30:46.359Z,999.88
2018-04-09T05:31:46.339Z,999.92
2018-04-09T05:32:46.321Z,999.84
2018-04-09T05:33:46.305Z,999.83
2018-04-09T05:34:46.290Z,999.85
2018-04-09T05:35:46.270Z,999.80
2018-04-09T05:36:46.257Z,999.84
2018-04-09T05:37:46.249Z,999.86
2018-04-09T05:38:46.227Z,999.85
2018-04-09T05:39:46.210Z,999.89
2018-04-09T05:40:46.189Z,999.86
2018-04-09T05:41:46.177Z,999.88
2018-04-09T05:42:46.154Z,999.91
2018-04-09T05:43:46.139Z,999.94
2018-04-09T05:44:46.123Z,999.92
2018-04-09T05:45:46.106Z,999.96
2018-04-09T05:46:46.090Z,999.95
2018-04-09T05:47:46.072Z,999.98
2018-04-09T05:48:46.053Z,999.98
2018-04-09T05:49:46.039Z,999.97
2018-04-09T05:50:46.029Z,1000.02
2018-04-09T05:51:46.010Z,1000.02
2018-04-09T05:52:45.993Z,1000.00
2018-04-09T05:53:45.981Z,1000.03
2018-04-09T05:54:45.959Z,1000.04
2018-04-09T05:55:45.941Z,999.99
2018-04-09T05:56:45.927Z,999.99
2018-04-09T05:57:45.909Z,999.99
2018-04-09T05:58:45.895Z,1000.02
2018-04-09T05:59:45.874Z,1000.04
2018-04-09T06:00:45.858Z,1000.09
2018-04-09T06:01:45.841Z,1000.13
2018-04-09T06:02:45.826Z,1000.15
2018-04-09T06:03:45.808Z,1000.18
2018-04-09T06:04:45.790Z,1000.20
2018-04-09T06:05:45.776Z,1000.20
2018-04-09T06:06:45.758Z,1000.20
2018-04-09T06:07:45.742Z,1000.24
2018-04-09T06:08:45.729Z,1000.19
2018-04-09T06:09:45.709Z,1000.20
2018-04-09T06:10:45.702Z,1000.25
2018-04-09T06:11:45.676Z,1000.25
2018-04-09T06:12:45.662Z,1000.26
2018-04-09T06:13:45.650Z,1000.29
2018-04-09T06:14:45.629Z,1000.28
2018-04-09T06:15:45.613Z,1000.29
2018-04-09T06:16:45.593Z,1000.31
2018-04-09T06:17:45.579Z,1000.31
2018-04-09T06:18:45.563Z,1000.37
2018-04-09T06:19:45.547Z,1000.38
2018-04-09T06:20:45.540Z,1000.41
2018-04-09T06:21:45.516Z,1000.42
2018-04-09T06:22:45.499Z,1000.41
2018-04-09T06:23:45.480Z,1000.43
2018-04-09T06:24:45.474Z,1000.39
2018-04-09T06:25:45.449Z,1000.33
2018-04-09T06:26:45.429Z,1000.33
2018-04-09T06:27:45.425Z,1000.29
2018-04-09T06:28:45.395Z,1000.29
2018-04-09T06:29:45.381Z,1000.30
2018-04-09T06:30:45.364Z,1000.30
2018-04-09T06:31:45.345Z,1000.34
2018-04-09T06:32:45.331Z,1000.35
2018-04-09T06:33:45.314Z,1000.34
2018-04-09T06:34:45.298Z,1000.36
2018-04-09T06:35:45.283Z,1000.33
2018-04-09T06:36:45.266Z,1000.34
2018-04-09T06:37:45.246Z,1000.34
2018-04-09T06:38:45.230Z,1000.30
2018-04-09T06:39:45.216Z,1000.35
2018-04-09T06:40:45.198Z,1000.35
2018-04-09T06:41:45.187Z,1000.33
2018-04-09T06:42:45.164Z,1000.37
2018-04-09T06:43:45.148Z,1000.37
2018-04-09T06:44:45.135Z,1000.36
2018-04-09T06:45:45.121Z,1000.35
2018-04-09T06:46:45.102Z,1000.36
2018-04-09T06:47:45.085Z,1000.36
2018-04-09T06:48:45.069Z,1000.35
2018-04-09T06:49:45.049Z,1000.33
2018-04-09T06:50:45.070Z,1000.34
2018-04-09T06:51:45.019Z,1000.34
2018-04-09T06:52:45.000Z,1000.33
2018-04-09T06:53:44.987Z,1000.34
2018-04-09T06:54:44.972Z,1000.31
2018-04-09T06:55:44.956Z,1000.29
2018-04-09T06:56:44.942Z,1000.32
2018-04-09T06:57:44.921Z,1000.30
2018-04-09T06:58:44.912Z,1000.30
2018-04-09T06:59:44.884Z,1000.32
2018-04-09T07:00:44.869Z,1000.33
2018-04-09T07:01:44.853Z,1000.26
2018-04-09T07:02:44.837Z,1000.32
2018-04-09T07:03:44.872Z,1000.31
2018-04-09T07:04:44.805Z,1000.32
2018-04-09T07:05:44.789Z,1000.35
2018-04-09T07:06:44.769Z,1000.34
2018-04-09T07:07:44.758Z,1000.32
2018-04-09T07:08:44.738Z,1000.29
2018-04-09T07:09:44.721Z,1000.27
2018-04-09T07:10:44.711Z,1000.28
2018-04-09T07:11:44.689Z,1000.28
2018-04-09T07:12:44.670Z,1000.26
2018-04-09T07:13:44.655Z,1000.30
2018-04-09T07:14:44.643Z,1000.26
2018-04-09T07:15:44.624Z,1000.27
2018-04-09T07:16:44.607Z,1000.26
2018-04-09T07:17:44.592Z,1000.29
2018-04-09T07:18:44.576Z,1000.27
2018-04-09T07:19:44.554Z,1000.32
2018-04-09T07:20:44.539Z,1000.30
2018-04-09T07:21:44.524Z,1000.32
2018-04-09T07:22:44.515Z,1000.32
2018-04-09T07:23:44.491Z,1000.33
2018-04-09T07:24:44.474Z,1000.32
2018-04-09T07:25:44.457Z,1000.34
2018-04-09T07:26:44.442Z,1000.33
2018-04-09T07:27:44.425Z,1000.30
2018-04-09T07:28:44.410Z,1000.34
2018-04-09T07:29:44.395Z,1000.35
2018-04-09T07:30:44.380Z,1000.36
2018-04-09T07:31:44.364Z,1000.35
2018-04-09T07:32:44.349Z,1000.35
2018-04-09T07:33:44.330Z,1000.38
2018-04-09T07:34:44.318Z,1000.36
2018-04-09T07:35:44.295Z,1000.34
2018-04-09T07:36:44.280Z,1000.35
2018-04-09T07:37:44.273Z,1000.35
2018-04-09T07:38:44.250Z,1000.35
2018-04-09T07:39:44.234Z,1000.38
2018-04-09T07:40:44.214Z,1000.35
2018-04-09T07:41:44.197Z,1000.40
2018-04-09T07:42:44.182Z,1000.44
2018-04-09T07:43:44.174Z,1000.45
2018-04-09T07:44:44.161Z,1000.43
2018-04-09T07:45:44.135Z,1000.41
2018-04-09T07:46:44.119Z,1000.43
2018-04-09T07:47:44.103Z,1000.45
2018-04-09T07:48:44.085Z,1000.39
2018-04-09T07:49:44.072Z,1000.38
2018-04-09T07:50:44.056Z,1000.38
2018-04-09T07:51:44.070Z,1000.38
2018-04-09T07:52:44.024Z,1000.38
2018-04-09T07:53:44.008Z,1000.40
2018-04-09T07:54:43.989Z,1000.37
2018-04-09T07:55:43.970Z,1000.37
2018-04-09T07:56:43.960Z,1000.42
2018-04-09T07:57:43.939Z,1000.43
2018-04-09T07:58:43.934Z,1000.46
2018-04-09T07:59:43.906Z,1000.44
2018-04-09T08:00:43.890Z,1000.48
2018-04-09T08:01:43.883Z,1000.53
2018-04-09T08:02:43.859Z,1000.50
2018-04-09T08:03:43.844Z,1000.49
2018-04-09T08:04:43.828Z,1000.49
2018-04-09T08:05:43.819Z,1000.49
2018-04-09T08:06:43.800Z,1000.50
2018-04-09T08:07:43.780Z,1000.51
2018-04-09T08:08:43.769Z,1000.55
2018-04-09T08:09:43.749Z,1000.50
2018-04-09T08:10:43.736Z,1000.50
2018-04-09T08:11:43.717Z,1000.47
2018-04-09T08:12:43.699Z,1000.48
2018-04-09T08:13:43.693Z,1000.50
2018-04-09T08:14:43.669Z,1000.51
2018-04-09T08:15:43.655Z,1000.51
2018-04-09T08:16:43.639Z,1000.49
2018-04-09T08:17:43.624Z,1000.51
2018-04-09T08:18:43.613Z,1000.52
2018-04-09T08:19:43.593Z,1000.50
2018-04-09T08:20:43.576Z,1000.51
2018-04-09T08:21:43.559Z,1000.49
2018-04-09T08:22:43.544Z,1000.56
2018-04-09T08:23:43.526Z,1000.57
2018-04-09T08:24:43.510Z,1000.59
2018-04-09T08:25:43.495Z,1000.58
2018-04-09T08:26:43.478Z,1000.66
2018-04-09T08:27:43.463Z,1000.66
2018-04-09T08:28:43.453Z,1000.68
2018-04-09T08:29:43.429Z,1000.69
2018-04-09T08:30:43.415Z,1000.68
2018-04-09T08:31:43.398Z,1000.68
2018-04-09T08:32:43.386Z,1000.68
2018-04-09T08:33:43.369Z,1000.69
2018-04-09T08:34:43.351Z,1000.73
2018-04-09T08:35:43.335Z,1000.77
2018-04-09T08:36:43.329Z,1000.74
2018-04-09T08:37:43.309Z,1000.74
2018-04-09T08:38:43.291Z,1000.73
2018-04-09T08:39:43.274Z,1000.71
2018-04-09T08:40:43.263Z,1000.67
2018-04-09T08:41:43.246Z,1000.69
2018-04-09T08:42:43.229Z,1000.69
2018-04-09T08:43:43.214Z,1000.71
2018-04-09T08:44:43.207Z,1000.68
2018-04-09T08:45:43.179Z,1000.62
2018-04-09T08:46:43.178Z,1000.65
2018-04-09T08:47:43.151Z,1000.61
2018-04-09T08:48:43.143Z,1000.63
2018-04-09T08:49:43.118Z,1000.66
2018-04-09T08:50:43.102Z,1000.64
2018-04-09T08:51:43.090Z,1000.64
2018-04-09T08:52:43.072Z,1000.64
2018-04-09T08:53:43.055Z,1000.63
2018-04-09T08:54:43.044Z,1000.64
2018-04-09T08:55:43.024Z,1000.66
2018-04-09T08:56:43.260Z,1000.67
2018-04-09T08:57:42.994Z,1000.72
2018-04-09T08:58:42.978Z,1000.69
2018-04-09T08:59:42.968Z,1000.66
2018-04-09T09:00:42.949Z,1000.67
2018-04-09T09:01:42.943Z,1000.69
2018-04-09T09:02:42.919Z,1000.67
2018-04-09T09:03:42.905Z,1000.66
2018-04-09T09:04:42.886Z,1000.65
2018-04-09T09:05:42.874Z,1000.69
2018-04-09T09:06:42.858Z,1000.65
2018-04-09T09:07:42.843Z,1000.62
2018-04-09T09:08:42.826Z,1000.58
2018-04-09T09:09:42.813Z,1000.59
2018-04-09T09:10:42.797Z,1000.60
2018-04-09T09:11:42.778Z,1000.62
2018-04-09T09:12:42.763Z,1000.69
2018-04-09T09:13:42.746Z,1000.61
2018-04-09T09:14:42.735Z,1000.61
2018-04-09T09:15:42.718Z,1000.63
2018-04-09T09:16:42.699Z,1000.65
2018-04-09T09:17:42.691Z,1000.65
2018-04-09T09:18:42.677Z,1000.64
2018-04-09T09:19:42.659Z,1000.60
2018-04-09T09:20:42.645Z,1000.60
2018-04-09T09:21:42.630Z,1000.57
2018-04-09T09:22:42.614Z,1000.61
2018-04-09T09:23:42.595Z,1000.60
2018-04-09T09:24:42.579Z,1000.52
2018-04-09T09:25:42.566Z,1000.51
2018-04-09T09:26:42.553Z,1000.51
2018-04-09T09:27:42.535Z,1000.46
2018-04-09T09:28:42.518Z,1000.46
2018-04-09T09:29:42.508Z,1000.42
2018-04-09T09:30:42.491Z,1000.41
2018-04-09T09:31:42.477Z,1000.42
2018-04-09T09:32:42.462Z,1000.38
2018-04-09T09:33:42.450Z,1000.37
2018-04-09T09:34:42.430Z,1000.38
2018-04-09T09:35:42.420Z,1000.35
2018-04-09T09:36:42.399Z,1000.32
2018-04-09T09:37:42.385Z,1000.37
2018-04-09T09:38:42.370Z,1000.34
2018-04-09T09:39:42.354Z,1000.37
2018-04-09T09:40:42.338Z,1000.45
2018-04-09T09:41:42.322Z,1000.37
2018-04-09T09:42:42.306Z,1000.42
2018-04-09T09:43:42.295Z,1000.45
2018-04-09T09:44:42.290Z,1000.43
2018-04-09T09:45:42.269Z,1000.41
2018-04-09T09:46:42.244Z,1000.40
2018-04-09T09:47:42.230Z,1000.40
2018-04-09T09:48:42.231Z,1000.40
2018-04-09T09:49:42.199Z,1000.39
2018-04-09T09:50:42.190Z,1000.40
2018-04-09T09:51:42.182Z,1000.39
2018-04-09T09:52:42.162Z,1000.43
2018-04-09T09:53:42.141Z,1000.40
2018-04-09T09:54:42.127Z,1000.35
2018-04-09T09:55:42.111Z,1000.32
2018-04-09T09:56:42.102Z,1000.33
2018-04-09T09:57:42.079Z,1000.26
2018-04-09T09:58:42.062Z,1000.28
2018-04-09T09:59:42.047Z,1000.26
2018-04-09T10:00:42.030Z,1000.24
2018-04-09T10:01:42.042Z,1000.25
2018-04-09T10:02:42.017Z,1000.24
2018-04-09T10:03:41.989Z,1000.20
2018-04-09T10:04:41.981Z,1000.14
2018-04-09T10:05:41.960Z,1000.24
2018-04-09T10:06:41.939Z,1000.26
2018-04-09T10:07:41.953Z,1000.24
2018-04-09T10:08:41.909Z,1000.18
2018-04-09T10:09:41.898Z,1000.15
2018-04-09T10:10:41.878Z,1000.15
2018-04-09T10:11:41.864Z,1000.14
2018-04-09T10:12:41.849Z,1000.14
2018-04-09T10:13:41.833Z,1000.25
2018-04-09T10:14:41.826Z,1000.19
2018-04-09T10:15:41.806Z,1000.17
2018-04-09T10:16:41.790Z,1000.11
2018-04-09T10:17:41.779Z,1000.16
2018-04-09T10:18:41.767Z,1000.11
2018-04-09T10:19:41.749Z,1000.13
2018-04-09T10:20:41.745Z,1000.14
2018-04-09T10:21:41.715Z,1000.12
2018-04-09T10:22:41.701Z,1000.08
2018-04-09T10:23:41.687Z,1000.09
2018-04-09T10:24:41.672Z,1000.07
2018-04-09T10:25:41.660Z,1000.09
2018-04-09T10:26:41.642Z,1000.11
2018-04-09T10:27:41.628Z,1000.09
2018-04-09T10:28:41.614Z,1000.08
2018-04-09T10:29:41.601Z,1000.04
2018-04-09T10:30:41.581Z,1000.03
2018-04-09T10:31:41.570Z,1000.04
2018-04-09T10:32:41.560Z,1000.09
2018-04-09T10:33:41.537Z,1000.06
2018-04-09T10:34:41.531Z,1000.05
2018-04-09T10:35:41.511Z,999.98
2018-04-09T10:36:41.495Z,999.95
2018-04-09T10:37:41.479Z,999.87
2018-04-09T10:38:41.479Z,999.89
2018-04-09T10:39:41.449Z,999.89
2018-04-09T10:40:41.432Z,999.91
2018-04-09T10:41:41.416Z,999.90
2018-04-09T10:42:41.402Z,999.89
2018-04-09T10:43:41.389Z,999.89
2018-04-09T10:44:41.376Z,999.96
2018-04-09T10:45:41.358Z,999.88
2018-04-09T10:46:41.347Z,999.93
2018-04-09T10:47:41.338Z,999.90
2018-04-09T10:48:41.313Z,999.82
2018-04-09T10:49:41.326Z,999.79
2018-04-09T10:50:41.290Z,999.75
2018-04-09T10:51:41.268Z,999.77
2018-04-09T10:52:41.258Z,999.75
2018-04-09T10:53:41.240Z,999.73
2018-04-09T10:54:41.228Z,999.74
2018-04-09T10:55:41.214Z,999.79
2018-04-09T10:56:41.202Z,999.83
2018-04-09T10:57:41.185Z,999.82
2018-04-09T10:58:41.170Z,999.78
2018-04-09T10:59:41.169Z,999.81
2018-04-09T11:00:41.138Z,999.75
2018-04-09T11:01:41.122Z,999.78
2018-04-09T11:02:41.109Z,999.77
2018-04-09T11:03:41.094Z,999.77
2018-04-09T11:04:41.081Z,999.70
2018-04-09T11:05:41.063Z,999.71
2018-04-09T11:06:41.050Z,999.74
2018-04-09T11:07:41.040Z,999.76
2018-04-09T11:08:41.020Z,999.78
2018-04-09T11:09:41.006Z,999.75
2018-04-09T11:10:41.000Z,999.71
2018-04-09T11:11:41.006Z,999.66
2018-04-09T11:12:40.966Z,999.66
2018-04-09T11:13:40.993Z,999.67
2018-04-09T11:14:40.933Z,999.67
2018-04-09T11:15:40.924Z,999.64
2018-04-09T11:16:40.912Z,999.63
2018-04-09T11:17:40.889Z,999.61
2018-04-09T11:18:40.882Z,999.65
2018-04-09T11:19:40.883Z,999.66
2018-04-09T11:20:40.849Z,999.63
2018-04-09T11:21:40.833Z,999.64
2018-04-09T11:22:40.829Z,999.62
2018-04-09T11:23:40.811Z,999.59
2018-04-09T11:24:40.794Z,999.60
2018-04-09T11:25:40.785Z,999.57
2018-04-09T11:26:40.770Z,999.57
2018-04-09T11:27:40.747Z,999.56
2018-04-09T11:28:40.732Z,999.58
2018-04-09T11:29:40.719Z,999.56
2018-04-09T11:30:40.706Z,999.55
2018-04-09T11:31:40.690Z,999.53
2018-04-09T11:32:40.677Z,999.51
2018-04-09T11:33:40.663Z,999.48
2018-04-09T11:34:40.649Z,999.49
2018-04-09T11:35:40.630Z,999.47
2018-04-09T11:36:40.625Z,999.50
2018-04-09T11:37:40.615Z,999.51
2018-04-09T11:38:40.595Z,999.51
2018-04-09T11:39:40.580Z,999.50
2018-04-09T11:40:40.564Z,999.49
2018-04-09T11:41:40.556Z,999.50
2018-04-09T11:42:40.539Z,999.47
2018-04-09T11:43:40.523Z,999.45
2018-04-09T11:44:40.515Z,999.49
2018-04-09T11:45:40.495Z,999.49
2018-04-09T11:46:40.487Z,999.52
2018-04-09T11:47:40.472Z,999.48
2018-04-09T11:48:40.452Z,999.47
2018-04-09T11:49:40.448Z,999.45
2018-04-09T11:50:40.427Z,999.46
2018-04-09T11:51:40.409Z,999.44
2018-04-09T11:52:40.395Z,999.46
2018-04-09T11:53:40.389Z,999.43
2018-04-09T11:54:40.370Z,999.48
2018-04-09T11:55:40.353Z,999.49
2018-04-09T11:56:40.339Z,999.51
2018-04-09T11:57:40.328Z,999.57
2018-04-09T11:58:40.316Z,999.56
2018-04-09T11:59:40.303Z,999.56
2018-04-09T12:00:40.284Z,999.51
2018-04-09T12:01:40.280Z,999.50
2018-04-09T12:02:40.253Z,999.49
2018-04-09T12:03:40.242Z,999.49
2018-04-09T12:04:40.230Z,999.47
2018-04-09T12:05:40.212Z,999.49
2018-04-09T12:06:40.197Z,999.45
2018-04-09T12:07:40.190Z,999.47
2018-04-09T12:08:40.170Z,999.41
2018-04-09T12:09:40.156Z,999.38
2018-04-09T12:10:40.145Z,999.41
2018-04-09T12:11:40.128Z,999.40
2018-04-09T12:12:40.121Z,999.36
2018-04-09T12:13:40.103Z,999.34
2018-04-09T12:14:40.087Z,999.37
2018-04-09T12:15:40.089Z,999.32